MET'MAP v2.0
soon released !

Expected late october,
this new version will be
more efficient, smarter,
and hosted on a brand new
server x3 powerfull...
...and still free !


Not compatible ?
Try the mobile version !

LOG IN : | Subscribe | Disclaimer | Who is Orbifly ? |
ICAO code :

TAF - LSZA Lugano - 28 Jan 2020 07:39 UTC
Data Sources :     NOAA   


- Airport Elevation : 915 ft
- IATA code : LUG
- No reported NOTAMs.


LSZA - Lugano

Latest METAR recorded : 2015/08/11 07:50 LSZA 110750Z VRB02KT CAVOK 24/17 Q1015 NOSIG
TAF TAF LSZA
Valid from the 28 at 06:00 until the 28 at 15:00 UTC


280525Z 2806/2815 VRB03KT 1500 BR BKN009
PROB40 2806/2808 0500 FG
BECMG 2806/2809 5000 FEW010 BKN020
TEMPO 2806/2810 2500 DZRA
TEMPO 2810/2815 SHRA

Source NOAA
ATIS : +41 22 417 40 88


MET'MAP, your aeronautical weather chart ! - Copyright ORBIFLY December 2007

Programming & Development : Alexandra Zaïnal
Co-Developer : Marc-Olivier Méhu
Technical & hardware support : Manuel Goepfert
Concept & Financing : Baudouin d'Aumeries